createdAt,value
2018-12-18T00:00:07.662Z,102011.10
2018-12-18T00:02:33.807Z,102007.62
2018-12-18T00:05:01.995Z,102003.66
2018-12-18T00:07:28.130Z,102009.76
2018-12-18T00:09:54.259Z,102018.84
2018-12-18T00:12:20.376Z,102013.71
2018-12-18T00:14:46.508Z,102011.10
2018-12-18T00:17:12.654Z,102009.34
2018-12-18T00:19:38.792Z,102012.41
2018-12-18T00:22:05.779Z,102006.73
2018-12-18T00:24:31.898Z,102001.09
2018-12-18T00:26:58.060Z,102002.36
2018-12-18T00:29:24.288Z,102005.44
2018-12-18T00:31:50.434Z,102001.56
2018-12-18T00:34:16.582Z,101992.86
2018-12-18T00:36:42.739Z,101994.16
2018-12-18T00:39:10.898Z,101996.73
2018-12-18T00:41:37.023Z,101998.06
2018-12-18T00:44:03.310Z,102000.64
2018-12-18T00:46:29.454Z,101993.28
2018-12-18T00:48:55.583Z,101991.09
2018-12-18T00:51:21.699Z,101998.49
2018-12-18T00:53:47.827Z,101993.70
2018-12-18T00:56:13.975Z,101992.86
2018-12-18T00:58:40.100Z,101991.98
2018-12-18T01:01:06.227Z,101998.53
2018-12-18T01:03:32.342Z,102002.41
2018-12-18T01:05:58.498Z,102012.03
2018-12-18T01:08:24.654Z,102005.48
2018-12-18T01:10:50.768Z,102001.61
2018-12-18T01:13:16.935Z,102004.17
2018-12-18T01:15:43.094Z,102005.94
2018-12-18T01:18:09.248Z,102009.80
2018-12-18T01:20:35.375Z,102010.27
2018-12-18T01:23:01.499Z,102012.03
2018-12-18T01:25:27.616Z,102015.10
2018-12-18T01:27:53.759Z,102009.89
2018-12-18T01:30:19.874Z,102012.50
2018-12-18T01:32:46.001Z,102017.30
2018-12-18T01:35:12.132Z,102012.08
2018-12-18T01:37:38.277Z,102012.92
2018-12-18T01:40:04.836Z,102016.41
2018-12-18T01:42:30.975Z,102008.63
2018-12-18T01:44:57.117Z,102015.14
2018-12-18T01:47:23.260Z,102013.84
2018-12-18T01:49:49.368Z,102007.75
2018-12-18T01:52:15.510Z,102019.10
2018-12-18T01:54:41.616Z,102019.98
2018-12-18T01:57:07.764Z,102019.56
2018-12-18T01:59:33.876Z,102017.38
2018-12-18T02:01:59.996Z,102017.38
2018-12-18T02:04:26.131Z,102016.95
2018-12-18T02:06:52.249Z,102012.63
2018-12-18T02:09:18.404Z,102016.55
2018-12-18T02:11:44.646Z,102019.61
2018-12-18T02:14:10.799Z,102019.19
2018-12-18T02:16:36.914Z,102029.20
2018-12-18T02:19:03.055Z,102023.09
2018-12-18T02:21:29.192Z,102025.29
2018-12-18T02:23:55.334Z,102024.41
2018-12-18T02:26:21.449Z,102025.30
2018-12-18T02:28:47.590Z,102022.72
2018-12-18T02:31:13.724Z,102020.11
2018-12-18T02:33:39.860Z,102024.45
2018-12-18T02:36:05.988Z,102017.47
2018-12-18T02:38:32.195Z,102032.73
2018-12-18T02:40:58.333Z,102024.44
2018-12-18T02:43:24.485Z,102027.05
2018-12-18T02:45:50.597Z,102024.44
2018-12-18T02:48:17.367Z,102030.09
2018-12-18T02:50:43.514Z,102034.88
2018-12-18T02:53:09.671Z,102028.36
2018-12-18T02:55:35.839Z,102031.81
2018-12-18T02:58:01.984Z,102037.91
2018-12-18T03:00:28.115Z,102038.78
2018-12-18T03:02:54.235Z,102042.73
2018-12-18T03:05:20.645Z,102037.03
2018-12-18T03:07:46.787Z,102040.09
2018-12-18T03:10:13.042Z,102036.64
2018-12-18T03:12:39.151Z,102047.03
2018-12-18T03:15:05.571Z,102043.13
2018-12-18T03:17:31.713Z,102041.82
2018-12-18T03:19:57.831Z,102040.55
2018-12-18T03:22:23.990Z,102040.52
2018-12-18T03:24:50.150Z,102049.22
2018-12-18T03:27:16.266Z,102044.42
2018-12-18T03:29:42.409Z,102050.10
2018-12-18T03:32:10.572Z,102051.37
2018-12-18T03:34:36.700Z,102044.00
2018-12-18T03:37:02.851Z,102049.68
2018-12-18T03:39:29.099Z,102052.30
2018-12-18T03:41:55.462Z,102054.05
2018-12-18T03:44:21.584Z,102058.39
2018-12-18T03:46:47.727Z,102064.48
2018-12-18T03:49:13.844Z,102067.09
2018-12-18T03:51:39.996Z,102064.91
2018-12-18T03:54:06.147Z,102064.07
2018-12-18T03:56:32.298Z,102066.67
2018-12-18T03:58:58.426Z,102075.84
2018-12-18T04:01:24.541Z,102070.59
2018-12-18T04:03:50.846Z,102074.95
2018-12-18T04:06:17.063Z,102074.08
2018-12-18T04:08:43.191Z,102077.58
2018-12-18T04:11:09.349Z,102077.61
2018-12-18T04:13:35.494Z,102073.70
2018-12-18T04:16:01.623Z,102083.25
2018-12-18T04:18:27.771Z,102081.52
2018-12-18T04:20:53.908Z,102076.73
2018-12-18T04:23:20.063Z,102075.44
2018-12-18T04:25:46.201Z,102081.95
2018-12-18T04:28:12.335Z,102077.61
2018-12-18T04:30:38.463Z,102080.19
2018-12-18T04:33:04.593Z,102080.22
2018-12-18T04:35:30.755Z,102082.37
2018-12-18T04:37:56.913Z,102086.74
2018-12-18T04:40:23.066Z,102081.48
2018-12-18T04:42:49.198Z,102085.86
2018-12-18T04:45:15.876Z,102086.33
2018-12-18T04:47:42.112Z,102088.47
2018-12-18T04:50:08.265Z,102093.69
2018-12-18T04:52:34.398Z,102092.39
2018-12-18T04:55:00.541Z,102095.45
2018-12-18T04:57:26.687Z,102088.00
2018-12-18T04:59:52.798Z,102088.00
2018-12-18T05:02:18.941Z,102095.41
2018-12-18T05:04:50.269Z,102092.80
2018-12-18T05:07:13.398Z,102098.89
2018-12-18T05:09:39.585Z,102099.32
2018-12-18T05:12:05.739Z,102100.63
2018-12-18T05:14:31.880Z,102098.48
2018-12-18T05:16:58.019Z,102103.70
2018-12-18T05:19:24.281Z,102098.06
2018-12-18T05:21:50.572Z,102106.34
2018-12-18T05:24:16.824Z,102111.95
2018-12-18T05:26:42.953Z,102105.42
2018-12-18T05:29:09.090Z,102111.47
2018-12-18T05:31:35.215Z,102118.88
2018-12-18T05:34:01.372Z,102118.45
2018-12-18T05:36:27.509Z,102119.77
2018-12-18T05:38:53.676Z,102116.73
2018-12-18T05:41:19.827Z,102118.08
2018-12-18T05:43:45.982Z,102119.39
2018-12-18T05:46:12.115Z,102121.53
2018-12-18T05:48:38.244Z,102121.11
2018-12-18T05:51:04.391Z,102125.49
2018-12-18T05:53:30.525Z,102129.87
2018-12-18T05:55:56.630Z,102129.45
2018-12-18T05:58:22.767Z,102127.73
2018-12-18T06:00:49.759Z,102133.36
2018-12-18T06:03:16.106Z,102140.81
2018-12-18T06:05:42.218Z,102141.66
2018-12-18T06:08:08.363Z,102140.81
2018-12-18T06:10:34.503Z,102148.64
2018-12-18T06:13:00.672Z,102147.71
2018-12-18T06:15:26.791Z,102154.23
2018-12-18T06:17:52.924Z,102156.84
2018-12-18T06:20:19.058Z,102163.36
2018-12-18T06:22:45.207Z,102165.54
2018-12-18T06:25:11.382Z,102168.15
2018-12-18T06:27:37.604Z,102167.69
2018-12-18T06:30:05.787Z,102167.27
2018-12-18T06:32:31.915Z,102162.05
2018-12-18T06:34:58.094Z,102164.66
2018-12-18T06:37:24.226Z,102163.31
2018-12-18T06:39:50.401Z,102165.04
2018-12-18T06:42:16.615Z,102158.51
2018-12-18T06:44:42.779Z,102163.73
2018-12-18T06:47:08.916Z,102169.37
2018-12-18T06:49:35.092Z,102165.45
2018-12-18T06:52:01.270Z,102170.67
2018-12-18T06:54:27.414Z,102175.47
2018-12-18T06:56:53.556Z,102169.78
2018-12-18T06:59:19.741Z,102168.47
2018-12-18T07:01:45.868Z,102173.23
2018-12-18T07:04:12.114Z,102168.02
2018-12-18T07:06:38.251Z,102171.08
2018-12-18T07:09:06.868Z,102158.23
2018-12-18T07:11:33.039Z,102174.99
2018-12-18T07:13:59.197Z,102174.53
2018-12-18T07:16:25.387Z,102177.61
2018-12-18T07:18:51.528Z,102169.36
2018-12-18T07:21:17.654Z,102168.91
2018-12-18T07:23:43.790Z,102180.22
2018-12-18T07:26:09.935Z,102173.27
2018-12-18T07:28:36.123Z,102173.70
2018-12-18T07:31:02.273Z,102181.05
2018-12-18T07:33:28.426Z,102183.28
2018-12-18T07:35:54.599Z,102187.20
2018-12-18T07:38:20.756Z,102189.81
2018-12-18T07:40:46.913Z,102184.17
2018-12-18T07:43:13.047Z,102183.76
2018-12-18T07:45:39.255Z,102182.91
2018-12-18T07:48:05.424Z,102184.17
2018-12-18T07:50:31.583Z,102192.47
2018-12-18T07:52:57.723Z,102194.19
2018-12-18T07:55:23.862Z,102188.55
2018-12-18T07:57:49.985Z,102194.66
2018-12-18T08:00:16.139Z,102190.32
2018-12-18T08:02:42.266Z,102193.36
2018-12-18T08:05:08.417Z,102199.87
2018-12-18T08:07:34.563Z,102196.37
2018-12-18T08:10:00.675Z,102202.44
2018-12-18T08:12:26.836Z,102206.81
2018-12-18T08:14:53.042Z,102199.00
2018-12-18T08:17:19.191Z,102203.79
2018-12-18T08:19:45.451Z,102202.48
2018-12-18T08:22:11.594Z,102205.09
2018-12-18T08:24:37.712Z,102206.86
2018-12-18T08:27:03.889Z,102207.33
2018-12-18T08:29:30.031Z,102217.77
2018-12-18T08:31:56.167Z,102216.47
2018-12-18T08:34:22.315Z,102216.88
2018-12-18T08:36:48.452Z,102220.00
2018-12-18T08:39:14.645Z,102220.84
2018-12-18T08:41:40.819Z,102216.92
2018-12-18T08:44:07.057Z,102226.05
2018-12-18T08:46:33.220Z,102226.94
2018-12-18T08:49:00.222Z,102233.42
2018-12-18T08:51:26.560Z,102234.34
2018-12-18T08:53:52.706Z,102238.26
2018-12-18T08:56:18.872Z,102236.13
2018-12-18T08:58:45.026Z,102240.05
2018-12-18T09:01:11.150Z,102240.92
2018-12-18T09:03:37.316Z,102235.23
2018-12-18T09:06:03.480Z,102233.52
2018-12-18T09:08:29.767Z,102239.20
2018-12-18T09:10:55.933Z,102243.11
2018-12-18T09:13:22.069Z,102243.11
2018-12-18T09:15:54.202Z,102240.09
2018-12-18T09:18:20.390Z,102239.25
2018-12-18T09:20:46.526Z,102236.17
2018-12-18T09:23:12.652Z,102239.72
2018-12-18T09:25:38.819Z,102238.83
2018-12-18T09:28:04.938Z,102240.17
2018-12-18T09:30:31.080Z,102246.70
2018-12-18T09:32:57.257Z,102248.86
2018-12-18T09:35:23.416Z,102252.39
2018-12-18T09:37:51.608Z,102249.73
2018-12-18T09:40:19.808Z,102252.39
2018-12-18T09:42:51.959Z,102255.42
2018-12-18T09:45:18.091Z,102258.91
2018-12-18T09:47:44.223Z,102251.09
2018-12-18T09:50:10.375Z,102259.80
2018-12-18T09:52:36.583Z,102254.59
2018-12-18T09:55:02.999Z,102250.25
2018-12-18T09:57:35.230Z,102245.50
2018-12-18T10:00:01.367Z,102246.80
2018-12-18T10:02:27.534Z,102249.83
2018-12-18T10:04:53.695Z,102246.76
2018-12-18T10:07:19.840Z,102249.84
2018-12-18T10:09:46.007Z,102240.70
2018-12-18T10:12:12.132Z,102244.57
2018-12-18T10:14:38.268Z,102244.98
2018-12-18T10:17:04.419Z,102250.67
2018-12-18T10:19:30.574Z,102258.92
2018-12-18T10:21:56.723Z,102255.94
2018-12-18T10:24:22.874Z,102250.25
2018-12-18T10:26:49.007Z,102247.69
2018-12-18T10:29:15.123Z,102244.62
2018-12-18T10:31:41.280Z,102245.12
2018-12-18T10:34:07.467Z,102250.39
2018-12-18T10:36:33.647Z,102243.41
2018-12-18T10:38:59.770Z,102246.02
2018-12-18T10:41:25.990Z,102237.72
2018-12-18T10:43:52.124Z,102245.12
2018-12-18T10:46:18.249Z,102245.17
2018-12-18T10:48:44.416Z,102251.65
2018-12-18T10:51:10.547Z,102252.12
2018-12-18T10:53:36.680Z,102252.12
2018-12-18T10:56:02.852Z,102248.62
2018-12-18T10:58:29.021Z,102253.00
2018-12-18T11:03:55.760Z,102252.16
2018-12-18T11:06:21.896Z,102261.67
2018-12-18T11:08:48.043Z,102257.34
2018-12-18T11:11:14.163Z,102253.89
2018-12-18T11:13:40.458Z,102257.76
2018-12-18T11:16:06.639Z,102263.82
2018-12-18T11:18:32.790Z,102260.79
2018-12-18T11:20:58.940Z,102254.73
2018-12-18T11:23:25.085Z,102259.10
2018-12-18T11:25:51.251Z,102261.77
2018-12-18T11:28:17.394Z,102269.14
2018-12-18T11:30:43.527Z,102258.73
2018-12-18T11:33:09.705Z,102257.02
2018-12-18T11:35:35.881Z,102263.92
2018-12-18T11:38:02.044Z,102269.64
2018-12-18T11:40:28.204Z,102267.45
2018-12-18T11:42:54.343Z,102274.34
2018-12-18T11:45:20.492Z,102272.16
2018-12-18T11:47:46.627Z,102272.21
2018-12-18T11:50:12.767Z,102270.06
2018-12-18T11:52:38.933Z,102273.94
2018-12-18T11:55:05.124Z,102276.12
2018-12-18T11:57:31.291Z,102281.30
2018-12-18T11:59:57.434Z,102280.83
2018-12-18T12:02:23.590Z,102276.92
2018-12-18T12:04:49.722Z,102279.53
2018-12-18T12:07:15.850Z,102277.80
2018-12-18T12:09:41.999Z,102276.54
2018-12-18T12:12:08.166Z,102274.77
2018-12-18T12:14:34.343Z,102276.03
2018-12-18T12:17:01.609Z,102288.09
2018-12-18T12:19:28.148Z,102281.98
2018-12-18T12:21:54.282Z,102286.83
2018-12-18T12:24:20.447Z,102286.36
2018-12-18T12:26:48.455Z,102280.22
2018-12-18T12:29:14.593Z,102279.33
2018-12-18T12:31:40.773Z,102281.98
2018-12-18T12:34:06.927Z,102288.09
2018-12-18T12:36:33.059Z,102289.34
2018-12-18T12:38:59.203Z,102285.48
2018-12-18T12:41:25.331Z,102285.90
2018-12-18T12:43:51.486Z,102282.83
2018-12-18T12:46:17.747Z,102289.44
2018-12-18T12:48:50.099Z,102285.06
2018-12-18T12:51:16.215Z,102283.75
2018-12-18T12:53:42.496Z,102276.81
2018-12-18T12:56:08.623Z,102282.91
2018-12-18T12:58:34.803Z,102278.95
2018-12-18T13:01:00.971Z,102283.33
2018-12-18T13:03:27.129Z,102284.64
2018-12-18T13:05:53.290Z,102286.83
2018-12-18T13:08:19.407Z,102290.28
2018-12-18T13:10:45.539Z,102290.33
2018-12-18T13:13:11.688Z,102292.94
2018-12-18T13:15:37.845Z,102296.81
2018-12-18T13:18:03.976Z,102296.39
2018-12-18T13:20:30.115Z,102294.20
2018-12-18T13:22:56.243Z,102293.34
2018-12-18T13:25:22.375Z,102296.39
2018-12-18T13:27:48.515Z,102299.41
2018-12-18T13:30:14.646Z,102306.39
2018-12-18T13:32:40.773Z,102309.42
2018-12-18T13:35:06.922Z,102309.02
2018-12-18T13:37:33.058Z,102308.55
2018-12-18T13:39:59.196Z,102307.71
2018-12-18T13:42:25.339Z,102308.55
2018-12-18T13:44:51.499Z,102313.34
2018-12-18T13:47:17.632Z,102284.02
2018-12-18T13:49:43.774Z,102307.70
2018-12-18T13:52:09.918Z,102307.70
2018-12-18T13:54:36.037Z,102309.00
2018-12-18T13:57:02.163Z,102310.27
2018-12-18T13:59:28.290Z,102306.30
2018-12-18T14:01:54.437Z,102311.84
2018-12-18T14:04:20.572Z,102309.11
2018-12-18T14:06:49.638Z,102318.98
2018-12-18T14:09:14.998Z,102325.45
2018-12-18T14:11:41.159Z,102331.48
2018-12-18T14:14:07.289Z,102327.10
2018-12-18T14:16:33.476Z,102327.48
2018-12-18T14:18:59.674Z,102325.32
2018-12-18T14:21:25.804Z,102331.85
2018-12-18T14:23:51.923Z,102344.05
2018-12-18T14:26:18.187Z,102335.39
2018-12-18T14:28:44.319Z,102330.59
2018-12-18T14:31:10.476Z,102338.84
2018-12-18T14:33:36.647Z,102342.33
2018-12-18T14:36:02.807Z,102341.91
2018-12-18T14:38:28.996Z,102341.46
2018-12-18T14:40:55.141Z,102346.67
2018-12-18T14:43:21.296Z,102344.95
2018-12-18T14:45:47.445Z,102341.45
2018-12-18T14:48:13.583Z,102342.70
2018-12-18T14:50:39.783Z,102351.83
2018-12-18T14:53:05.948Z,102352.23
2018-12-18T14:55:32.098Z,102355.27
2018-12-18T14:57:58.233Z,102346.98
2018-12-18T15:00:24.344Z,102353.96
2018-12-18T15:02:50.486Z,102353.50
2018-12-18T15:05:17.751Z,102350.89
2018-12-18T15:07:44.255Z,102356.09
2018-12-18T15:10:10.451Z,102366.99
2018-12-18T15:12:38.641Z,102370.03
2018-12-18T15:15:04.830Z,102379.16
2018-12-18T15:17:30.991Z,102376.12
2018-12-18T15:19:57.135Z,102376.18
2018-12-18T15:22:23.267Z,102384.44
2018-12-18T15:24:49.399Z,102388.77
2018-12-18T15:27:15.599Z,102387.91
2018-12-18T15:29:41.772Z,102388.77
2018-12-18T15:32:07.958Z,102387.05
2018-12-18T15:34:34.099Z,102390.94
2018-12-18T15:37:00.243Z,102389.66
2018-12-18T15:39:26.382Z,102393.61
2018-12-18T15:41:52.519Z,102394.03
2018-12-18T15:44:18.824Z,102394.03
2018-12-18T15:46:44.987Z,102394.87
2018-12-18T15:49:11.119Z,102391.83
2018-12-18T15:51:37.307Z,102393.13
2018-12-18T15:54:03.507Z,102387.91
2018-12-18T15:56:29.623Z,102394.45
2018-12-18T15:58:55.763Z,102394.44
2018-12-18T16:01:21.911Z,102397.05
2018-12-18T16:03:48.063Z,102399.65
2018-12-18T16:06:14.184Z,102396.17
2018-12-18T16:08:40.331Z,102390.05
2018-12-18T16:11:06.456Z,102397.83
2018-12-18T16:13:32.587Z,102401.38
2018-12-18T16:15:58.719Z,102400.91
2018-12-18T16:18:24.846Z,102402.67
2018-12-18T16:20:50.976Z,102406.17
2018-12-18T16:23:17.151Z,102403.52
2018-12-18T16:25:43.299Z,102400.89
2018-12-18T16:28:09.432Z,102402.67
2018-12-18T16:30:35.586Z,102403.94
2018-12-18T16:33:01.790Z,102401.80
2018-12-18T16:35:28.304Z,102402.20
2018-12-18T16:37:54.655Z,102398.70
2018-12-18T16:40:20.794Z,102400.42
2018-12-18T16:42:46.935Z,102402.09
2018-12-18T16:45:13.228Z,102398.19
2018-12-18T16:47:39.440Z,102401.68
2018-12-18T16:50:05.775Z,102404.70
2018-12-18T16:52:31.907Z,102407.72
2018-12-18T16:54:58.067Z,102399.48
2018-12-18T16:57:24.254Z,102405.16
2018-12-18T16:59:50.391Z,102406.47
2018-12-18T17:02:16.563Z,102400.36
2018-12-18T17:04:42.728Z,102406.47
2018-12-18T17:07:08.898Z,102403.45
2018-12-18T17:09:35.121Z,102405.66
2018-12-18T17:12:01.255Z,102406.13
2018-12-18T17:14:27.385Z,102410.08
2018-12-18T17:16:53.540Z,102408.78
2018-12-18T17:19:19.675Z,102411.40
2018-12-18T17:21:45.850Z,102411.88
2018-12-18T17:24:11.979Z,102413.23
2018-12-18T17:26:38.136Z,102408.50
2018-12-18T17:29:04.285Z,102411.46
2018-12-18T17:31:30.431Z,102409.68
2018-12-18T17:33:56.583Z,102411.40
2018-12-18T17:36:22.724Z,102406.23
2018-12-18T17:38:48.847Z,102416.66
2018-12-18T17:41:15.052Z,102411.87
2018-12-18T17:43:41.555Z,102412.75
2018-12-18T17:46:07.723Z,102416.66
2018-12-18T17:48:33.859Z,102414.05
2018-12-18T17:50:59.989Z,102411.82
2018-12-18T17:53:26.114Z,102412.17
2018-12-18T17:55:52.263Z,102416.07
2018-12-18T17:58:18.511Z,102420.34
2018-12-18T18:00:44.680Z,102419.92
2018-12-18T18:03:10.859Z,102414.28
2018-12-18T18:05:37.015Z,102422.11
2018-12-18T18:08:03.166Z,102415.55
2018-12-18T18:10:29.309Z,102427.69
2018-12-18T18:12:55.482Z,102423.66
2018-12-18T18:15:21.742Z,102429.36
2018-12-18T18:17:47.874Z,102418.91
2018-12-18T18:20:14.259Z,102421.52
2018-12-18T18:22:40.597Z,102424.08
2018-12-18T18:25:06.747Z,102420.98
2018-12-18T18:27:32.891Z,102424.55
2018-12-18T18:29:59.056Z,102425.38
2018-12-18T18:32:25.207Z,102427.97
2018-12-18T18:34:51.336Z,102420.16
2018-12-18T18:37:17.475Z,102426.31
2018-12-18T18:39:43.602Z,102425.91
2018-12-18T18:42:09.794Z,102429.42
2018-12-18T18:44:35.935Z,102429.00
2018-12-18T18:47:02.109Z,102426.37
2018-12-18T18:49:28.240Z,102435.50
2018-12-18T18:51:54.379Z,102435.50
2018-12-18T18:54:20.515Z,102441.16
2018-12-18T18:56:46.676Z,102439.90
2018-12-18T18:59:12.831Z,102438.19
2018-12-18T19:01:39.035Z,102432.49
2018-12-18T19:04:05.326Z,102438.61
2018-12-18T19:06:31.507Z,102439.08
2018-12-18T19:08:57.649Z,102440.43
2018-12-18T19:11:23.763Z,102438.72
2018-12-18T19:13:49.910Z,102435.23
2018-12-18T19:16:16.047Z,102444.41
2018-12-18T19:18:42.179Z,102441.81
2018-12-18T19:21:08.341Z,102440.51
2018-12-18T19:23:34.502Z,102443.53
2018-12-18T19:26:00.843Z,102440.56
2018-12-18T19:28:26.974Z,102448.84
2018-12-18T19:30:53.167Z,102443.63
2018-12-18T19:33:19.304Z,102441.45
2018-12-18T19:35:45.427Z,102447.14
2018-12-18T19:38:11.604Z,102448.46
2018-12-18T19:40:37.729Z,102444.11
2018-12-18T19:43:03.880Z,102450.63
2018-12-18T19:45:30.083Z,102448.86
2018-12-18T19:47:56.290Z,102429.05
2018-12-18T19:50:22.462Z,102451.00
2018-12-18T19:52:48.586Z,102446.67
2018-12-18T19:55:14.742Z,102449.77
2018-12-18T19:57:40.872Z,102454.97
2018-12-18T20:00:09.502Z,102453.24
2018-12-18T20:02:35.671Z,102449.77
2018-12-18T20:05:01.857Z,102454.61
2018-12-18T20:07:28.021Z,102450.28
2018-12-18T20:09:54.160Z,102451.59
2018-12-18T20:12:20.356Z,102458.13
2018-12-18T20:14:46.644Z,102456.80
2018-12-18T20:17:12.922Z,102455.93
2018-12-18T20:19:39.337Z,102462.03
2018-12-18T20:22:05.484Z,102459.89
2018-12-18T20:24:31.635Z,102459.47
2018-12-18T20:26:57.776Z,102463.38
2018-12-18T20:29:23.917Z,102461.20
2018-12-18T20:31:50.053Z,102466.41
2018-12-18T20:34:16.264Z,102463.34
2018-12-18T20:36:42.403Z,102464.27
2018-12-18T20:39:08.605Z,102466.41
2018-12-18T20:41:34.811Z,102460.36
2018-12-18T20:44:01.012Z,102461.25
2018-12-18T20:46:27.165Z,102460.73
2018-12-18T20:48:53.298Z,102448.93
2018-12-18T20:51:19.432Z,102449.70
2018-12-18T20:53:45.580Z,102449.22
2018-12-18T20:56:11.758Z,102445.31
2018-12-18T20:58:37.879Z,102450.11
2018-12-18T21:01:04.045Z,102451.94
2018-12-18T21:03:30.210Z,102452.38
2018-12-18T21:05:56.357Z,102450.63
2018-12-18T21:08:23.546Z,102450.16
2018-12-18T21:10:49.892Z,102452.83
2018-12-18T21:13:22.006Z,102462.39
2018-12-18T21:15:48.128Z,102466.34
2018-12-18T21:18:14.280Z,102464.52
2018-12-18T21:20:40.442Z,102466.70
2018-12-18T21:23:06.550Z,102465.00
2018-12-18T21:25:32.675Z,102464.58
2018-12-18T21:27:58.807Z,102464.58
2018-12-18T21:30:24.951Z,102462.44
2018-12-18T21:32:51.129Z,102465.06
2018-12-18T21:35:17.267Z,102473.41
2018-12-18T21:37:43.412Z,102467.73
2018-12-18T21:40:09.547Z,102478.16
2018-12-18T21:42:35.872Z,102480.30
2018-12-18T21:45:02.040Z,102482.00
2018-12-18T21:47:28.195Z,102481.06
2018-12-18T21:49:54.361Z,102473.24
2018-12-18T21:52:20.497Z,102469.33
2018-12-18T21:54:46.587Z,102473.23
2018-12-18T21:57:12.745Z,102471.86
2018-12-18T21:59:38.869Z,102469.13
2018-12-18T22:02:05.008Z,102468.23
2018-12-18T22:04:31.271Z,102470.77
2018-12-18T22:06:57.461Z,102463.32
2018-12-18T22:09:23.733Z,102462.44
2018-12-18T22:11:49.884Z,102468.12
2018-12-18T22:14:15.979Z,102461.58
2018-12-18T22:16:42.125Z,102464.61
2018-12-18T22:19:08.297Z,102465.98
2018-12-18T22:21:34.443Z,102469.91
2018-12-18T22:24:00.584Z,102472.14
2018-12-18T22:26:26.707Z,102473.91
2018-12-18T22:28:52.870Z,102472.61
2018-12-18T22:31:19.006Z,102476.89
2018-12-18T22:33:45.145Z,102478.59
2018-12-18T22:36:11.283Z,102480.73
2018-12-18T22:38:43.436Z,102469.89
2018-12-18T22:41:05.639Z,102475.59
2018-12-18T22:43:31.768Z,102480.44
2018-12-18T22:45:57.969Z,102480.87
2018-12-18T22:48:24.127Z,102483.11
2018-12-18T22:50:50.295Z,102479.61
2018-12-18T22:53:16.423Z,102484.41
2018-12-18T22:55:45.074Z,102484.84
2018-12-18T22:58:10.763Z,102487.03
2018-12-18T23:03:39.518Z,102474.81
2018-12-18T23:06:05.715Z,102474.83
2018-12-18T23:08:32.367Z,102480.94
2018-12-18T23:10:59.247Z,102476.59
2018-12-18T23:13:25.439Z,102480.50
2018-12-18T23:15:51.631Z,102475.28
2018-12-18T23:18:17.787Z,102478.74
2018-12-18T23:20:43.940Z,102485.73
2018-12-18T23:23:10.118Z,102484.02
2018-12-18T23:25:36.280Z,102482.59
2018-12-18T23:28:02.457Z,102479.98
2018-12-18T23:30:28.638Z,102478.68
2018-12-18T23:32:54.755Z,102469.55
2018-12-18T23:35:20.930Z,102467.77
2018-12-18T23:37:47.091Z,102461.71
2018-12-18T23:40:13.255Z,102463.90
2018-12-18T23:42:39.392Z,102466.09
2018-12-18T23:45:05.691Z,102472.61
2018-12-18T23:47:31.853Z,102474.34
2018-12-18T23:49:57.994Z,102483.95
2018-12-18T23:52:24.150Z,102477.42
2018-12-18T23:54:50.300Z,102478.68
2018-12-18T23:57:16.439Z,102473.46
2018-12-18T23:59:42.616Z,102476.94
